Muscadine, AL (36269)

6:06 AM CDT on July 30, 2014 (GMT -0500)
West Georgia Regional-Gray (KCTJ) Elev 1161 ft | 33.63 °N, 85.15 °W | Change Station

Current weather conditions updated 11 minutes ago

Clear
Clear
55 °F
Feels Like 55 °F
N
5
Wind Variable Wind from North

Today is forecast to be Warmer than yesterday.

Today
High -- | Low -- °F
--% Chance of Precip.
Yesterday
High -- | Low -- °F
Precip. -- in
5:52 AM 7:43 PM
Waxing Crescent, 11% visible
Pressure 30.07 in
Visibility 10.0 miles
Clouds Clear
Dew Point 52 °F
Humidity 88%
Rainfall 0.00 in
Snow Depth Not available.
UV 0 out of 12
Pollen 6.00 out of 12
Air Quality Not available.
Flu Activity Not available.
METAR KCTJ 301055Z AUTO 35004KT 10SM CLR 13/11 A3007 RMK AO2

More Conditions Fewer Conditions

Pressure 30.07 in
Visibility 10.0 miles
Clouds Clear
Dew Point 52 °F
Humidity 88%
Rainfall 0.00 in
Snow Depth Not available.
UV 0 out of 12
Pollen 6.00 out of 12
Air Quality Not available.
Flu Activity Not available.
METAR KCTJ 301055Z AUTO 35004KT 10SM CLR 13/11 A3007 RMK AO2

More Conditions Fewer Conditions

10-Day Weather Forecast

Almanac

Astronomy

Jul. 30, 2014 Rise Set
Actual Time 5:52 AM CDT 7:43 PM CDT
Civil Twilight 5:24 AM CDT 8:10 PM CDT
Nautical Twilight 4:51 AM CDT 8:43 PM CDT
Astronomical Twilight 4:16 AM CDT 9:19 PM CDT
Moon 9:10 AM CDT 9:39 PM CDT
Length of Visible Light 14h 46m
Length of Day
13h 51m
Tomorrow will be 1m 32s shorter.
Waxing Crescent, 11% of the Moon is Illuminated
Today
Waxing Crescent
Aug 3
First Quarter
Aug 10
Full
Aug 17
Last Quarter
Aug 25
New

Today's Extremes

State Highs State Lows

Community

WunderPhotos

Upload Photos

1,739,039 photos uploaded!

WunderBlogs® & News

Nearby

Snow Depth

Station Depth Elevation
No new snow has been reported.

Earthquake Activity

City Distance Mag. Time & Date
No recent earthquake activity has been reported nearby.
Minimum magnitude displayed is 2.5.

Coastal Water Temperatures

Place Temperature
No Stations Reporting

Nearby Weather Stations

Station Location Temp. Dew Point Humidity Wind Precip. Elev Updated Type
APRSWXNET Bowdon G, Bowdon, GA 53 °F 49 °F 85% NW  at  0 mph 0.00 in / hr 1017 ft 6:31 AM EDT MADIS
Amy Ridge, Temple, GA 56.8 °F 49 °F 74% WSW  at  0.0 mph 0.00 in / hr 1188 ft 7:06 AM EDT Rapid Fire
Choccolocco Community, Anniston, AL 58.8 °F 39 °F 47% NW  at  0.0 mph 0.00 in / hr 865 ft 6:06 AM CDT Rapid Fire
Chulafinnee, AL 55.8 °F 26 °F 32% North  at  0.0 mph 0.00 in / hr 928 ft 6:06 AM CDT Rapid Fire
RAWS MT. LONGLEAF AL, Fort McClellan, AL 56 °F 52 °F 88% ENE  at  3 mph 0.00 in / hr 1049 ft 4:46 AM CDT MADIS
Alluring Alpacas Farm, Temple, GA 56.3 °F 51 °F 82% NE  at  0.4 mph 0.00 in / hr 1210 ft 7:06 AM EDT Rapid Fire

Show More Stations Show Fewer Stations